createdAt,value
2019-02-11T00:01:41.914Z,1.20
2019-02-11T00:04:13.284Z,1.17
2019-02-11T00:06:44.410Z,1.50
2019-02-11T00:09:15.788Z,2.40
2019-02-11T00:11:46.977Z,2.03
2019-02-11T00:14:18.386Z,1.47
2019-02-11T00:16:49.540Z,1.73
2019-02-11T00:19:20.978Z,1.50
2019-02-11T00:21:52.072Z,1.60
2019-02-11T00:24:23.480Z,2.13
2019-02-11T00:26:54.562Z,3.33
2019-02-11T00:29:25.962Z,1.40
2019-02-11T00:31:57.020Z,1.40
2019-02-11T00:34:28.948Z,7.00
2019-02-11T00:37:00.022Z,1.63
2019-02-11T00:39:35.444Z,1.87
2019-02-11T00:42:06.514Z,1.57
2019-02-11T00:44:37.756Z,1.50
2019-02-11T00:47:08.868Z,1.50
2019-02-11T00:49:40.137Z,1.63
2019-02-11T00:52:11.280Z,1.80
2019-02-11T00:54:42.632Z,1.40
2019-02-11T00:57:13.693Z,2.00
2019-02-11T00:59:44.928Z,1.27
2019-02-11T01:02:16.004Z,1.47
2019-02-11T01:04:48.752Z,1.30
2019-02-11T01:07:19.942Z,1.30
2019-02-11T01:09:51.340Z,1.73
2019-02-11T01:12:22.448Z,1.30
2019-02-11T01:14:53.854Z,2.80
2019-02-11T01:17:24.928Z,1.37
2019-02-11T01:19:56.136Z,1.83
2019-02-11T01:22:27.220Z,2.20
2019-02-11T01:24:58.516Z,1.40
2019-02-11T01:27:29.636Z,1.50
2019-02-11T01:30:00.920Z,1.33
2019-02-11T01:32:33.170Z,1.20
2019-02-11T01:35:04.754Z,1.30
2019-02-11T01:37:35.902Z,1.33
2019-02-11T01:40:10.410Z,1.50
2019-02-11T01:42:41.506Z,1.30
2019-02-11T01:45:13.240Z,1.40
2019-02-11T01:47:44.473Z,1.20
2019-02-11T01:50:15.793Z,1.20
2019-02-11T01:52:46.871Z,1.87
2019-02-11T01:55:18.212Z,1.40
2019-02-11T01:57:49.302Z,2.53
2019-02-11T02:00:20.695Z,1.60
2019-02-11T02:02:51.787Z,1.63
2019-02-11T02:05:23.193Z,1.70
2019-02-11T02:07:54.284Z,2.80
2019-02-11T02:10:25.591Z,1.43
2019-02-11T02:12:58.022Z,1.40
2019-02-11T02:15:29.611Z,1.50
2019-02-11T02:18:00.773Z,1.13
2019-02-11T02:20:32.209Z,1.57
2019-02-11T02:23:03.291Z,5.60
2019-02-11T02:25:34.700Z,1.70
2019-02-11T02:28:05.778Z,1.60
2019-02-11T02:30:36.990Z,1.40
2019-02-11T02:33:08.117Z,1.40
2019-02-11T02:35:39.977Z,1.40
2019-02-11T02:38:13.002Z,2.80
2019-02-11T02:40:44.334Z,1.30
2019-02-11T02:43:15.483Z,1.13
2019-02-11T02:45:46.930Z,1.10
2019-02-11T02:48:17.977Z,2.97
2019-02-11T02:50:49.221Z,1.10
2019-02-11T02:53:20.314Z,1.37
2019-02-11T02:55:51.623Z,1.83
2019-02-11T02:58:22.683Z,1.20
2019-02-11T03:00:53.898Z,1.40
2019-02-11T03:03:24.968Z,6.20
2019-02-11T03:05:56.292Z,2.00
2019-02-11T03:08:27.352Z,1.43
2019-02-11T03:10:58.680Z,2.50
2019-02-11T03:13:29.748Z,1.73
2019-02-11T03:16:01.384Z,2.70
2019-02-11T03:18:32.570Z,3.73
2019-02-11T03:21:03.984Z,1.97
2019-02-11T03:23:35.156Z,1.53
2019-02-11T03:26:06.469Z,4.80
2019-02-11T03:28:37.552Z,9.30
2019-02-11T03:31:08.861Z,5.90
2019-02-11T03:33:39.941Z,4.27
2019-02-11T03:36:11.077Z,2.50
2019-02-11T03:38:42.213Z,3.50
2019-02-11T03:41:13.532Z,9.70
2019-02-11T03:43:44.610Z,1.70
2019-02-11T03:46:16.244Z,2.87
2019-02-11T03:48:47.667Z,1.60
2019-02-11T03:51:18.855Z,3.00
2019-02-11T03:53:49.940Z,2.60
2019-02-11T03:56:21.232Z,2.23
2019-02-11T03:58:52.302Z,2.10
2019-02-11T04:01:23.516Z,1.80
2019-02-11T04:03:54.606Z,3.20
2019-02-11T04:06:25.788Z,7.30
2019-02-11T04:08:56.955Z,1.97
2019-02-11T04:11:28.312Z,4.07
2019-02-11T04:13:59.424Z,4.53
2019-02-11T04:16:30.572Z,1.73
2019-02-11T04:19:01.652Z,3.20
2019-02-11T04:21:32.833Z,2.60
2019-02-11T04:24:03.935Z,4.30
2019-02-11T04:26:35.168Z,1.73
2019-02-11T04:29:06.266Z,7.27
2019-02-11T04:31:37.564Z,5.13
2019-02-11T04:34:08.650Z,3.80
2019-02-11T04:36:39.963Z,4.20
2019-02-11T04:39:11.036Z,2.10
2019-02-11T04:41:42.304Z,1.80
2019-02-11T04:44:13.374Z,3.10
2019-02-11T04:46:44.540Z,5.33
2019-02-11T04:49:15.633Z,1.93
2019-02-11T04:51:46.895Z,5.10
2019-02-11T04:54:18.234Z,1.60
2019-02-11T04:56:49.406Z,4.30
2019-02-11T04:59:20.544Z,3.80
2019-02-11T05:01:51.717Z,2.90
2019-02-11T05:04:22.800Z,3.20
2019-02-11T05:06:53.980Z,4.40
2019-02-11T05:09:25.112Z,1.73
2019-02-11T05:11:56.392Z,3.83
2019-02-11T05:14:27.516Z,5.93
2019-02-11T05:16:58.799Z,6.23
2019-02-11T05:19:35.045Z,2.00
2019-02-11T05:22:06.403Z,2.23
2019-02-11T05:24:37.486Z,3.13
2019-02-11T05:27:08.738Z,2.73
2019-02-11T05:29:41.106Z,14.50
2019-02-11T05:32:12.864Z,2.20
2019-02-11T05:34:43.964Z,2.07
2019-02-11T05:37:16.031Z,3.63
2019-02-11T05:39:47.179Z,2.63
2019-02-11T05:42:18.428Z,1.50
2019-02-11T05:44:53.956Z,1.73
2019-02-11T05:47:22.556Z,3.90
2019-02-11T05:49:53.694Z,3.70
2019-02-11T05:52:25.011Z,6.60
2019-02-11T05:55:07.483Z,8.43
2019-02-11T05:57:40.042Z,1.97
2019-02-11T06:00:12.617Z,4.70
2019-02-11T06:02:44.370Z,3.53
2019-02-11T06:05:15.538Z,2.50
2019-02-11T06:07:46.906Z,8.43
2019-02-11T06:10:18.041Z,2.50
2019-02-11T06:12:49.672Z,2.17
2019-02-11T06:15:20.879Z,3.20
2019-02-11T06:17:52.278Z,5.70
2019-02-11T06:20:23.653Z,11.43
2019-02-11T06:22:55.175Z,2.13
2019-02-11T06:25:26.426Z,2.53
2019-02-11T06:27:58.301Z,3.50
2019-02-11T06:30:29.837Z,3.30
2019-02-11T06:33:01.187Z,5.57
2019-02-11T06:35:32.348Z,4.10
2019-02-11T06:38:03.776Z,3.60
2019-02-11T06:40:34.826Z,7.87
2019-02-11T06:43:06.176Z,2.33
2019-02-11T06:45:38.694Z,2.50
2019-02-11T06:48:10.456Z,3.57
2019-02-11T06:50:41.582Z,4.57
2019-02-11T06:53:12.914Z,3.20
2019-02-11T06:55:44.036Z,5.13
2019-02-11T06:58:15.510Z,2.23
2019-02-11T07:00:46.794Z,5.17
2019-02-11T07:03:18.300Z,1.93
2019-02-11T07:05:49.340Z,3.10
2019-02-11T07:08:20.792Z,2.20
2019-02-11T07:10:55.691Z,11.33
2019-02-11T07:13:24.924Z,4.37
2019-02-11T07:15:55.988Z,2.40
2019-02-11T07:18:27.520Z,5.73
2019-02-11T07:20:59.146Z,2.30
2019-02-11T07:23:30.540Z,5.80
2019-02-11T07:26:01.620Z,5.33
2019-02-11T07:28:33.028Z,3.90
2019-02-11T07:31:04.308Z,4.03
2019-02-11T07:33:35.834Z,3.77
2019-02-11T07:36:07.242Z,4.37
2019-02-11T07:38:38.628Z,2.80
2019-02-11T07:41:09.760Z,11.20
2019-02-11T07:43:48.900Z,5.30
2019-02-11T07:46:27.448Z,4.43
2019-02-11T07:49:18.951Z,6.17
2019-02-11T07:51:51.347Z,3.47
2019-02-11T07:54:22.883Z,2.70
2019-02-11T07:56:53.973Z,5.80
2019-02-11T07:59:25.264Z,8.80
2019-02-11T08:01:56.387Z,3.20
2019-02-11T08:04:27.762Z,4.37
2019-02-11T08:06:58.920Z,13.47
2019-02-11T08:09:31.700Z,2.40
2019-02-11T08:12:02.792Z,4.43
2019-02-11T08:14:45.880Z,3.83
2019-02-11T08:17:17.390Z,2.70
2019-02-11T08:19:49.060Z,4.60
2019-02-11T08:22:20.144Z,13.00
2019-02-11T08:24:51.654Z,4.60
2019-02-11T08:27:23.154Z,3.50
2019-02-11T08:29:54.778Z,3.93
2019-02-11T08:32:25.895Z,2.53
2019-02-11T08:34:57.260Z,5.10
2019-02-11T08:37:28.356Z,8.50
2019-02-11T08:39:59.762Z,5.03
2019-02-11T08:42:30.856Z,8.73
2019-02-11T08:45:02.457Z,4.90
2019-02-11T08:47:33.808Z,3.50
2019-02-11T08:50:06.705Z,5.00
2019-02-11T08:52:37.924Z,2.60
2019-02-11T08:55:09.394Z,6.07
2019-02-11T08:57:42.331Z,2.63
2019-02-11T09:00:14.347Z,8.00
2019-02-11T09:02:46.012Z,2.93
2019-02-11T09:05:17.455Z,2.70
2019-02-11T09:07:48.935Z,4.70
2019-02-11T09:10:20.366Z,14.00
2019-02-11T09:12:51.463Z,5.90
2019-02-11T09:15:23.330Z,4.17
2019-02-11T09:17:54.385Z,3.63
2019-02-11T09:20:25.648Z,3.07
2019-02-11T09:22:56.906Z,4.10
2019-02-11T09:25:28.366Z,8.83
2019-02-11T09:27:59.419Z,6.60
2019-02-11T09:30:30.742Z,6.07
2019-02-11T09:33:01.935Z,3.13
2019-02-11T09:35:33.593Z,6.70
2019-02-11T09:38:23.741Z,7.27
2019-02-11T09:40:55.080Z,3.40
2019-02-11T09:43:26.152Z,3.87
2019-02-11T09:46:03.708Z,4.73
2019-02-11T09:48:31.382Z,5.03
2019-02-11T09:51:03.639Z,3.60
2019-02-11T09:53:34.748Z,7.30
2019-02-11T09:56:06.055Z,3.60
2019-02-11T09:58:38.141Z,6.13
2019-02-11T10:01:09.671Z,3.00
2019-02-11T10:03:40.726Z,3.70
2019-02-11T10:06:12.179Z,7.50
2019-02-11T10:08:43.356Z,2.40
2019-02-11T10:11:14.763Z,4.60
2019-02-11T10:13:45.855Z,3.80
2019-02-11T10:16:17.352Z,6.70
2019-02-11T10:18:48.628Z,6.57
2019-02-11T10:21:20.048Z,2.17
2019-02-11T10:23:51.129Z,5.43
2019-02-11T10:26:22.454Z,5.70
2019-02-11T10:28:53.666Z,3.63
2019-02-11T10:31:24.957Z,2.90
2019-02-11T10:33:56.222Z,3.90
2019-02-11T10:36:27.698Z,4.20
2019-02-11T10:38:58.956Z,2.70
2019-02-11T10:41:30.656Z,4.83
2019-02-11T10:44:01.726Z,2.80
2019-02-11T10:46:33.138Z,4.43
2019-02-11T10:49:04.439Z,4.37
2019-02-11T10:51:36.058Z,2.13
2019-02-11T10:54:08.188Z,6.43
2019-02-11T10:56:40.794Z,3.53
2019-02-11T10:59:11.878Z,2.70
2019-02-11T11:01:43.199Z,1.87
2019-02-11T11:04:14.248Z,3.70
2019-02-11T11:06:45.572Z,5.70
2019-02-11T11:09:16.973Z,7.50
2019-02-11T11:11:48.577Z,7.80
2019-02-11T11:14:20.815Z,3.40
2019-02-11T11:16:52.210Z,3.90
2019-02-11T11:19:26.084Z,2.83
2019-02-11T11:21:57.617Z,5.43
2019-02-11T11:24:28.672Z,3.73
2019-02-11T11:27:00.160Z,2.63
2019-02-11T11:29:31.321Z,2.53
2019-02-11T11:32:02.976Z,5.10
2019-02-11T11:34:34.384Z,2.20
2019-02-11T11:37:06.068Z,3.30
2019-02-11T11:39:37.476Z,1.77
2019-02-11T11:42:08.870Z,6.20
2019-02-11T11:44:39.929Z,2.20
2019-02-11T11:47:11.370Z,2.47
2019-02-11T11:49:42.714Z,3.53
2019-02-11T11:52:14.084Z,3.37
2019-02-11T11:55:04.606Z,3.97
2019-02-11T11:57:36.362Z,1.80
2019-02-11T12:00:16.755Z,3.60
2019-02-11T12:03:00.237Z,2.10
2019-02-11T12:05:21.023Z,2.40
2019-02-11T12:07:52.623Z,4.33
2019-02-11T12:10:24.009Z,2.83
2019-02-11T12:12:55.600Z,2.00
2019-02-11T12:15:27.498Z,4.80
2019-02-11T12:17:58.910Z,3.63
2019-02-11T12:20:32.929Z,2.93
2019-02-11T12:23:03.266Z,3.23
2019-02-11T12:25:34.386Z,4.87
2019-02-11T12:28:26.012Z,4.73
2019-02-11T12:31:08.570Z,3.83
2019-02-11T12:33:40.085Z,2.90
2019-02-11T12:36:11.323Z,3.87
2019-02-11T12:38:43.288Z,4.13
2019-02-11T12:41:14.525Z,2.33
2019-02-11T12:43:45.976Z,5.60
2019-02-11T12:46:17.122Z,2.50
2019-02-11T12:48:48.485Z,6.30
2019-02-11T12:51:19.845Z,3.60
2019-02-11T12:53:51.477Z,5.80
2019-02-11T12:56:22.563Z,4.77
2019-02-11T12:58:53.884Z,2.60
2019-02-11T13:01:24.987Z,2.17
2019-02-11T13:03:56.368Z,10.97
2019-02-11T13:06:27.495Z,2.80
2019-02-11T13:08:58.835Z,5.77
2019-02-11T13:11:29.954Z,2.47
2019-02-11T13:14:01.438Z,5.93
2019-02-11T13:16:32.632Z,3.63
2019-02-11T13:19:15.284Z,4.37
2019-02-11T13:21:46.413Z,3.87
2019-02-11T13:24:17.735Z,9.00
2019-02-11T13:26:48.910Z,6.83
2019-02-11T13:29:20.524Z,2.10
2019-02-11T13:31:51.653Z,1.80
2019-02-11T13:34:23.018Z,2.40
2019-02-11T13:36:54.153Z,3.83
2019-02-11T13:39:25.501Z,4.60
2019-02-11T13:41:56.580Z,2.67
2019-02-11T13:44:27.893Z,2.13
2019-02-11T13:46:58.967Z,4.47
2019-02-11T13:49:30.385Z,3.17
2019-02-11T13:52:01.699Z,2.57
2019-02-11T13:54:33.241Z,3.70
2019-02-11T13:57:04.318Z,2.50
2019-02-11T13:59:35.908Z,1.93
2019-02-11T14:02:07.299Z,4.00
2019-02-11T14:04:38.772Z,3.47
2019-02-11T14:07:09.878Z,2.77
2019-02-11T14:09:41.320Z,2.13
2019-02-11T14:12:12.673Z,3.17
2019-02-11T14:14:44.112Z,4.67
2019-02-11T14:17:15.237Z,2.50
2019-02-11T14:19:46.690Z,1.67
2019-02-11T14:22:17.751Z,3.90
2019-02-11T14:24:49.101Z,2.43
2019-02-11T14:27:20.245Z,3.33
2019-02-11T14:29:51.475Z,6.37
2019-02-11T14:32:22.970Z,2.67
2019-02-11T14:34:54.885Z,2.33
2019-02-11T14:37:26.686Z,2.43
2019-02-11T14:39:58.927Z,2.60
2019-02-11T14:42:31.086Z,5.10
2019-02-11T14:45:03.162Z,2.40
2019-02-11T14:47:34.650Z,2.40
2019-02-11T14:50:06.669Z,5.10
2019-02-11T14:52:38.592Z,4.30
2019-02-11T14:55:11.332Z,3.00
2019-02-11T14:57:42.389Z,2.20
2019-02-11T15:00:18.303Z,3.40
2019-02-11T15:02:49.924Z,3.40
2019-02-11T15:05:21.346Z,4.63
2019-02-11T15:07:52.790Z,5.63
2019-02-11T15:10:24.430Z,4.90
2019-02-11T15:12:55.900Z,2.10
2019-02-11T15:15:27.424Z,4.23
2019-02-11T15:17:58.594Z,5.03
2019-02-11T15:20:30.534Z,2.00
2019-02-11T15:23:01.627Z,10.97
2019-02-11T15:25:33.132Z,2.20
2019-02-11T15:28:04.628Z,2.40
2019-02-11T15:30:35.930Z,1.97
2019-02-11T15:33:07.024Z,8.40
2019-02-11T15:35:38.524Z,3.77
2019-02-11T15:38:09.618Z,2.60
2019-02-11T15:40:40.936Z,5.60
2019-02-11T15:43:11.998Z,3.03
2019-02-11T15:45:43.268Z,2.03
2019-02-11T15:48:14.507Z,2.13
2019-02-11T15:50:46.015Z,3.50
2019-02-11T15:53:17.293Z,2.63
2019-02-11T15:55:48.825Z,4.73
2019-02-11T15:58:20.021Z,5.57
2019-02-11T16:00:51.413Z,3.20
2019-02-11T16:03:22.512Z,2.77
2019-02-11T16:05:54.330Z,3.73
2019-02-11T16:08:25.544Z,8.83
2019-02-11T16:11:01.484Z,2.90
2019-02-11T16:13:29.690Z,4.83
2019-02-11T16:16:00.943Z,3.03
2019-02-11T16:18:32.053Z,3.77
2019-02-11T16:21:03.327Z,3.80
2019-02-11T16:23:34.524Z,2.37
2019-02-11T16:26:05.850Z,2.87
2019-02-11T16:28:37.081Z,5.93
2019-02-11T16:31:08.438Z,3.73
2019-02-11T16:33:39.951Z,4.40
2019-02-11T16:36:11.433Z,7.20
2019-02-11T16:38:42.487Z,2.77
2019-02-11T16:41:13.938Z,3.17
2019-02-11T16:43:44.991Z,3.30
2019-02-11T16:46:16.431Z,4.03
2019-02-11T16:48:48.095Z,13.90
2019-02-11T16:51:19.430Z,9.03
2019-02-11T16:53:50.560Z,4.00
2019-02-11T16:56:22.016Z,3.70
2019-02-11T16:58:53.471Z,3.53
2019-02-11T17:01:25.045Z,5.20
2019-02-11T17:03:56.127Z,4.23
2019-02-11T17:06:27.621Z,6.23
2019-02-11T17:08:58.708Z,4.40
2019-02-11T17:11:30.018Z,4.20
2019-02-11T17:14:01.221Z,5.07
2019-02-11T17:16:32.618Z,4.60
2019-02-11T17:19:09.166Z,5.33
2019-02-11T17:21:37.251Z,6.53
2019-02-11T17:24:20.084Z,5.90
2019-02-11T17:26:51.530Z,5.57
2019-02-11T17:29:22.574Z,6.30
2019-02-11T17:31:53.808Z,5.57
2019-02-11T17:34:24.987Z,8.40
2019-02-11T17:36:56.307Z,5.63
2019-02-11T17:39:27.948Z,10.23
2019-02-11T17:41:59.198Z,8.53
2019-02-11T17:44:30.563Z,6.73
2019-02-11T17:47:01.913Z,8.40
2019-02-11T17:49:33.013Z,8.30
2019-02-11T17:52:05.766Z,8.00
2019-02-11T17:54:37.133Z,8.87
2019-02-11T17:57:08.559Z,11.90
2019-02-11T17:59:39.651Z,12.00
2019-02-11T18:02:14.269Z,13.67
2019-02-11T18:04:45.339Z,11.83
2019-02-11T18:07:16.616Z,10.70
2019-02-11T18:09:47.708Z,11.90
2019-02-11T18:12:19.101Z,17.60
2019-02-11T18:14:50.200Z,17.80
2019-02-11T18:17:21.606Z,19.30
2019-02-11T18:19:52.734Z,12.27
2019-02-11T18:22:24.024Z,17.53
2019-02-11T18:24:55.136Z,17.33
2019-02-11T18:27:26.344Z,19.00
2019-02-11T18:30:09.468Z,16.60
2019-02-11T18:32:40.677Z,17.70
2019-02-11T18:35:12.162Z,18.90
2019-02-11T18:37:43.452Z,17.90
2019-02-11T18:40:14.652Z,21.93
2019-02-11T18:43:04.931Z,19.30
2019-02-11T18:45:36.205Z,18.70
2019-02-11T18:48:07.407Z,19.57
2019-02-11T18:50:38.519Z,19.67
2019-02-11T18:53:10.027Z,24.47
2019-02-11T18:55:41.170Z,22.63
2019-02-11T18:58:12.468Z,22.60
2019-02-11T19:00:43.579Z,18.70
2019-02-11T19:03:14.881Z,27.53
2019-02-11T19:05:46.021Z,25.73
2019-02-11T19:08:17.217Z,22.50
2019-02-11T19:11:00.056Z,21.20
2019-02-11T19:13:31.419Z,22.13
2019-02-11T19:16:02.487Z,18.90
2019-02-11T19:18:33.670Z,18.57
2019-02-11T19:21:04.716Z,21.90
2019-02-11T19:23:36.040Z,19.63
2019-02-11T19:26:07.184Z,20.40
2019-02-11T19:28:38.450Z,20.67
2019-02-11T19:31:09.497Z,17.87
2019-02-11T19:33:40.782Z,19.30
2019-02-11T19:36:11.868Z,19.90
2019-02-11T19:38:43.610Z,20.33
2019-02-11T19:41:15.942Z,19.73
2019-02-11T19:43:47.204Z,23.73
2019-02-11T19:46:19.582Z,26.10
2019-02-11T19:48:50.840Z,24.23
2019-02-11T19:51:22.018Z,21.50
2019-02-11T19:53:53.188Z,19.80
2019-02-11T19:56:24.287Z,24.53
2019-02-11T19:59:07.904Z,25.30
2019-02-11T20:01:39.027Z,26.77
2019-02-11T20:04:10.309Z,26.10
2019-02-11T20:06:41.424Z,24.33
2019-02-11T20:09:32.491Z,30.90
2019-02-11T20:11:57.414Z,26.27
2019-02-11T20:14:28.810Z,26.93
2019-02-11T20:16:59.918Z,32.97
2019-02-11T20:19:31.291Z,24.40
2019-02-11T20:22:02.387Z,29.23
2019-02-11T20:24:34.820Z,25.33
2019-02-11T20:27:05.942Z,22.87
2019-02-11T20:29:37.419Z,27.67
2019-02-11T20:32:08.492Z,24.00
2019-02-11T20:34:40.214Z,25.93
2019-02-11T20:37:11.658Z,27.10
2019-02-11T20:39:42.904Z,25.67
2019-02-11T20:42:14.053Z,28.07
2019-02-11T20:44:45.344Z,24.67
2019-02-11T20:47:16.426Z,25.00
2019-02-11T20:49:47.785Z,23.30
2019-02-11T20:52:19.077Z,23.00
2019-02-11T20:54:50.389Z,24.90
2019-02-11T20:57:21.471Z,26.43
2019-02-11T20:59:52.904Z,29.23
2019-02-11T21:02:24.018Z,27.10
2019-02-11T21:04:55.478Z,26.60
2019-02-11T21:07:26.636Z,26.57
2019-02-11T21:09:57.995Z,22.30
2019-02-11T21:12:48.154Z,22.23
2019-02-11T21:15:31.185Z,24.50
2019-02-11T21:18:02.634Z,28.93
2019-02-11T21:20:36.756Z,31.30
2019-02-11T21:23:09.759Z,25.43
2019-02-11T21:25:41.192Z,29.10
2019-02-11T21:28:12.364Z,31.43
2019-02-11T21:30:43.688Z,30.77
2019-02-11T21:33:14.809Z,31.20
2019-02-11T21:35:46.082Z,29.23
2019-02-11T21:38:17.941Z,29.13
2019-02-11T21:40:49.289Z,32.43
2019-02-11T21:43:20.398Z,29.70
2019-02-11T21:45:51.692Z,26.23
2019-02-11T21:48:22.794Z,31.60
2019-02-11T21:50:54.182Z,32.27
2019-02-11T21:53:25.260Z,29.33
2019-02-11T21:55:56.682Z,36.17
2019-02-11T21:58:27.810Z,38.30
2019-02-11T22:01:11.266Z,30.97
2019-02-11T22:03:42.528Z,39.40
2019-02-11T22:06:13.946Z,39.23
2019-02-11T22:08:45.079Z,37.73
2019-02-11T22:11:16.352Z,35.07
2019-02-11T22:13:47.574Z,34.20
2019-02-11T22:16:18.716Z,35.37
2019-02-11T22:19:01.388Z,38.73
2019-02-11T22:21:32.698Z,33.10
2019-02-11T22:24:03.905Z,37.67
2019-02-11T22:26:35.496Z,32.40
2019-02-11T22:29:06.746Z,35.07
2019-02-11T22:31:37.923Z,30.17
2019-02-11T22:34:09.034Z,28.83
2019-02-11T22:36:51.890Z,24.40
2019-02-11T22:39:23.240Z,29.10
2019-02-11T22:41:54.560Z,23.83
2019-02-11T22:44:25.664Z,22.60
2019-02-11T22:46:56.986Z,24.70
2019-02-11T22:49:28.068Z,24.30
2019-02-11T22:51:59.540Z,23.47
2019-02-11T22:54:30.948Z,20.90
2019-02-11T22:57:02.648Z,21.63
2019-02-11T22:59:33.740Z,25.80
2019-02-11T23:02:05.671Z,26.60
2019-02-11T23:04:36.824Z,20.87
2019-02-11T23:07:08.242Z,22.23
2019-02-11T23:09:39.332Z,24.60
2019-02-11T23:12:10.736Z,24.37
2019-02-11T23:14:41.803Z,29.70
2019-02-11T23:17:13.240Z,26.83
2019-02-11T23:19:56.400Z,20.37
2019-02-11T23:22:27.810Z,24.50
2019-02-11T23:24:58.941Z,27.43
2019-02-11T23:27:30.411Z,25.30
2019-02-11T23:30:20.546Z,22.53
2019-02-11T23:32:51.952Z,23.57
2019-02-11T23:35:23.010Z,29.40
2019-02-11T23:37:54.448Z,20.80
2019-02-11T23:40:25.488Z,23.93
2019-02-11T23:42:56.846Z,20.27
2019-02-11T23:45:47.243Z,16.10
2019-02-11T23:48:18.699Z,18.00
2019-02-11T23:50:49.748Z,22.00
2019-02-11T23:53:28.148Z,19.27
2019-02-11T23:55:59.204Z,20.03
2019-02-11T23:58:30.640Z,19.73
